Decoded Metar for CYPX (PUVIRGNITUQ in QC, CANADA) (IATA:YPX) | Meteo·Mobile Aviation Weather
aviador You're here:

CYPX Decoded Metar

PUVIRGNITUQ in QC, CANADA
Report Time2018-11-18 20:00:00
UTC Time2018-11-18 20:30:05
Flight Rules mvfr MVFR
Wind130° at 04 kt
W.Decomp.*RWY 19: 3.1 kt HW 2.5 kt LCW
W.Rank130° ranks 28
Current wind is below 130° avg. (10.5)
Visibility9999 m
Phenomena:Light Snow
Clouds:Broken 022 Hf
Overcast 030 Hf
Expected CloudBase > 800 ft AGL from Temp-Dew spread
Ceiling2,200 ft
Temp-16°C (ISA -31)
Dew Point-18°C (85% RH)
AAT-20.9°C
QNH1008 hPa
Density Alt-3,645 ft
Elevation75 ft
Report Wrong Elevation
Raw Report
CYPX 182000Z AUTO 13004KT 9SM -SN BKN022 OVC030 M16/M18 A2976 RMK
SLP081=

Extra information for CYPX:More info

Metar Taf Metar & Taf Last 4 Metars F.Rules Stats Wind Profile Meteogram Temp Stats Airport Information Weather charts Add Link Nearby VenuesMetar ALERT Operation Metar Decoded Social comments